Terminal Aerodrome Forecast
Issued by NWS Cleveland, OH

Home | Current Version | Previous Version | Text Only | Print | Product List | Glossary On
Versions: 1 2 3 4 5 6 7 8 9 10 11 12 13 14 15 16 17 18 19 20 21 22 23 24
000
FTUS41 KCLE 141747
TAFYNG
TAF
KYNG 141747Z 1418/1518 33008KT P6SM -SHSN OVC025
     FM142100 30006KT P6SM BKN035
     FM150100 27004KT P6SM OVC250
     FM151100 20004KT P6SM BKN080
     FM151700 22008KT P6SM OVC040=

USA.gov is the U.S. government's official web portal to all federal, state and local government web resources and services.